Time;durP1;ratioP1;P1;durP2;ratioP2;P2;SDS_P1;SDS_P2;PMS_P1;PMS_P2;Temp;Humidity;BMP_temperature;BMP_pressure;BME280_temperature;BME280_humidity;BME280_pressure;Samples;Min_cycle;Max_cycle;Signal;HPM_P1;HPM_P2
2023/09/24 00:00:53;;;;;;;;;;;11.70;99.90;;;;;;7333381;19;110769;-66
2023/09/24 00:03:21;;;;;;;;;;;11.70;99.90;;;;;;7339046;19;110600;-66
2023/09/24 00:05:48;;;;;;;;;;;11.70;99.90;;;;;;7336506;19;108515;-65
2023/09/24 00:08:17;;;;;;;;;;;11.60;99.90;;;;;;7342012;19;108744;-65
2023/09/24 00:10:52;;;;;;;;;;;11.60;99.90;;;;;;7339644;19;109031;-66
2023/09/24 00:13:21;;;;;;;;;;;11.60;99.90;;;;;;7338326;19;109114;-65
2023/09/24 00:15:52;;;;;;;;;;;11.50;99.90;;;;;;7336898;19;109811;-66
2023/09/24 00:18:19;;;;;;;;;;;11.50;99.90;;;;;;7340143;19;108446;-65
2023/09/24 00:20:47;;;;;;;;;;;11.50;99.90;;;;;;7338229;19;108821;-64
2023/09/24 00:23:15;;;;;;;;;;;11.50;99.90;;;;;;7337337;19;109849;-67
2023/09/24 00:25:44;;;;;;;;;;;11.50;99.90;;;;;;7335489;19;110546;-65
2023/09/24 00:28:11;;;;;;;;;;;11.40;99.90;;;;;;7337391;19;108425;-64
2023/09/24 00:30:41;;;;;;;;;;;11.30;99.90;;;;;;7341796;19;108772;-66
2023/09/24 00:33:08;;;;;;;;;;;11.30;99.90;;;;;;7338153;19;109060;-66
2023/09/24 00:35:36;;;;;;;;;;;11.30;99.90;;;;;;7335465;19;109969;-66
2023/09/24 00:38:03;;;;;;;;;;;11.30;99.90;;;;;;7336774;19;109570;-65
2023/09/24 00:40:30;;;;;;;;;;;11.30;99.90;;;;;;7339436;19;108938;-65
2023/09/24 00:42:57;;;;;;;;;;;11.30;99.90;;;;;;7337423;19;110193;-65
2023/09/24 00:45:28;;;;;;;;;;;11.30;99.90;;;;;;7334348;19;109862;-66
2023/09/24 00:47:56;;;;;;;;;;;11.30;99.90;;;;;;7335353;19;110424;-68
2023/09/24 00:50:24;;;;;;;;;;;11.20;99.90;;;;;;7334296;19;110548;-66
2023/09/24 00:52:53;;;;;;;;;;;11.20;99.90;;;;;;7342255;19;110040;-66
2023/09/24 00:55:20;;;;;;;;;;;11.20;99.90;;;;;;7332328;19;109639;-66
2023/09/24 00:57:49;;;;;;;;;;;11.20;99.90;;;;;;7338064;19;108867;-66
2023/09/24 01:00:18;;;;;;;;;;;11.10;99.90;;;;;;7334769;19;108713;-66
2023/09/24 01:02:49;;;;;;;;;;;11.10;99.90;;;;;;7336143;19;110060;-66
2023/09/24 01:05:18;;;;;;;;;;;11.10;99.90;;;;;;7331252;19;110342;-66
2023/09/24 01:07:46;;;;;;;;;;;11.00;99.90;;;;;;7336262;19;108595;-65
2023/09/24 01:10:14;;;;;;;;;;;10.90;99.90;;;;;;7332064;19;110634;-66
2023/09/24 01:12:52;;;;;;;;;;;10.90;99.90;;;;;;7341700;19;113160;-66
2023/09/24 01:15:20;;;;;;;;;;;10.80;99.90;;;;;;7333678;19;110552;-66
2023/09/24 01:17:47;;;;;;;;;;;10.80;99.90;;;;;;7332373;19;109465;-66
2023/09/24 01:20:15;;;;;;;;;;;10.80;99.90;;;;;;7335585;19;109209;-67
2023/09/24 01:22:42;;;;;;;;;;;10.70;99.90;;;;;;7337390;19;110166;-66
2023/09/24 01:25:09;;;;;;;;;;;10.80;99.90;;;;;;7334186;19;109821;-66
2023/09/24 01:27:36;;;;;;;;;;;10.80;99.90;;;;;;7332013;19;110959;-66
2023/09/24 01:30:06;;;;;;;;;;;10.80;99.90;;;;;;7334430;19;110722;-65
2023/09/24 01:32:35;;;;;;;;;;;10.80;99.90;;;;;;7334829;19;108696;-66
2023/09/24 01:35:03;;;;;;;;;;;10.80;99.90;;;;;;7341078;19;110755;-66
2023/09/24 01:37:33;;;;;;;;;;;10.70;99.90;;;;;;7333806;19;109437;-68
2023/09/24 01:40:24;;;;;;;;;;;10.70;99.90;;;;;;7336709;19;109772;-65
2023/09/24 01:42:52;;;;;;;;;;;10.70;99.90;;;;;;7334203;19;109509;-65
2023/09/24 01:45:19;;;;;;;;;;;10.70;99.90;;;;;;7334142;19;110526;-65
2023/09/24 01:47:49;;;;;;;;;;;10.70;99.90;;;;;;7333273;19;113449;-66
2023/09/24 01:50:17;;;;;;;;;;;10.70;99.90;;;;;;7331538;19;109784;-65
2023/09/24 01:52:47;;;;;;;;;;;10.60;99.90;;;;;;7331620;19;108422;-66
2023/09/24 01:55:17;;;;;;;;;;;10.60;99.90;;;;;;7338843;19;108677;-66
2023/09/24 01:57:53;;;;;;;;;;;10.60;99.90;;;;;;7336266;19;109849;-66
2023/09/24 02:03:10;;;;;;;;;;;10.60;99.90;;;;;;7341408;19;108561;-95
2023/09/24 02:05:39;;;;;;;;;;;10.60;99.90;;;;;;7345700;19;108040;-96
2023/09/24 02:08:08;;;;;;;;;;;10.60;99.90;;;;;;7346493;19;108261;-94
2023/09/24 02:16:08;;;;;;;;;;;10.60;99.90;;;;;;7334455;19;109016;-65
2023/09/24 02:18:36;;;;;;;;;;;10.50;99.90;;;;;;7333834;19;110014;-65
2023/09/24 02:21:18;;;;;;;;;;;10.40;99.90;;;;;;7338934;19;108861;-65
2023/09/24 02:23:45;;;;;;;;;;;10.40;99.90;;;;;;7328307;19;109292;-67
2023/09/24 02:26:13;;;;;;;;;;;10.40;99.90;;;;;;7332747;19;110645;-66
2023/09/24 02:28:40;;;;;;;;;;;10.40;99.90;;;;;;7328423;19;108996;-66
2023/09/24 02:31:11;;;;;;;;;;;10.40;99.90;;;;;;7330915;19;111104;-67
2023/09/24 02:33:39;;;;;;;;;;;10.40;99.90;;;;;;7329133;19;109026;-66
2023/09/24 02:36:08;;;;;;;;;;;10.30;99.90;;;;;;7329751;19;109364;-67
2023/09/24 02:38:35;;;;;;;;;;;10.30;99.90;;;;;;7333277;19;109108;-66
2023/09/24 02:41:04;;;;;;;;;;;10.20;99.90;;;;;;7329096;19;109458;-67
2023/09/24 02:43:32;;;;;;;;;;;10.20;99.90;;;;;;7333041;19;108755;-66
2023/09/24 02:46:00;;;;;;;;;;;10.20;99.90;;;;;;7331299;19;110542;-67
2023/09/24 02:48:27;;;;;;;;;;;10.20;99.90;;;;;;7331863;19;109273;-66
2023/09/24 02:50:56;;;;;;;;;;;10.10;99.90;;;;;;7333223;19;109869;-67
2023/09/24 02:53:23;;;;;;;;;;;10.10;99.90;;;;;;7330259;19;109565;-67
2023/09/24 02:55:50;;;;;;;;;;;10.10;99.90;;;;;;7333417;19;108997;-65
2023/09/24 02:58:18;;;;;;;;;;;10.10;99.90;;;;;;7325479;19;110376;-66
2023/09/24 03:00:46;;;;;;;;;;;10.00;99.90;;;;;;7332810;19;108662;-67
2023/09/24 03:03:15;;;;;;;;;;;10.00;99.90;;;;;;7332243;19;109721;-66
2023/09/24 03:05:43;;;;;;;;;;;10.00;99.90;;;;;;7330436;19;109083;-66
2023/09/24 03:08:15;;;;;;;;;;;10.00;99.90;;;;;;7331242;19;110827;-66
2023/09/24 03:10:42;;;;;;;;;;;10.00;99.90;;;;;;7329638;19;109172;-66
2023/09/24 03:13:10;;;;;;;;;;;10.00;99.90;;;;;;7329778;19;108805;-66
2023/09/24 03:15:37;;;;;;;;;;;9.90;99.90;;;;;;7329803;19;109183;-67
2023/09/24 03:18:04;;;;;;;;;;;9.80;99.90;;;;;;7331353;19;110551;-67
2023/09/24 03:20:32;;;;;;;;;;;9.80;99.90;;;;;;7330240;19;109730;-67
2023/09/24 03:23:08;;;;;;;;;;;9.80;99.90;;;;;;7329270;19;109738;-65
2023/09/24 03:25:36;;;;;;;;;;;9.80;99.90;;;;;;7335721;19;109129;-66
2023/09/24 03:28:03;;;;;;;;;;;9.80;99.90;;;;;;7325690;19;110233;-67
2023/09/24 03:30:30;;;;;;;;;;;9.80;99.90;;;;;;7325592;19;110817;-67
2023/09/24 03:32:58;;;;;;;;;;;9.80;99.90;;;;;;7335354;19;108586;-66
2023/09/24 03:35:27;;;;;;;;;;;9.80;99.90;;;;;;7337535;19;109350;-67
2023/09/24 03:37:55;;;;;;;;;;;9.80;99.90;;;;;;7334518;19;109647;-67
2023/09/24 03:40:26;;;;;;;;;;;9.80;99.90;;;;;;7339040;19;108780;-67
2023/09/24 03:42:53;;;;;;;;;;;9.80;99.90;;;;;;7335242;19;110010;-67
2023/09/24 03:45:23;;;;;;;;;;;9.80;99.90;;;;;;7332027;19;110461;-67
2023/09/24 03:47:51;;;;;;;;;;;9.80;99.90;;;;;;7339497;19;110172;-67
2023/09/24 03:50:19;;;;;;;;;;;9.80;99.90;;;;;;7336403;19;109670;-67
2023/09/24 03:52:47;;;;;;;;;;;9.70;99.90;;;;;;7339486;19;109207;-66
2023/09/24 03:55:19;;;;;;;;;;;9.70;99.90;;;;;;7333214;19;110132;-67
2023/09/24 03:57:47;;;;;;;;;;;9.70;99.90;;;;;;7331142;19;110062;-66
2023/09/24 04:00:15;;;;;;;;;;;9.80;99.90;;;;;;7333766;19;109762;-67
2023/09/24 04:02:43;;;;;;;;;;;9.80;99.90;;;;;;7336949;19;109336;-67
2023/09/24 04:05:14;;;;;;;;;;;9.80;99.90;;;;;;7332818;19;109473;-67
2023/09/24 04:07:42;;;;;;;;;;;9.70;99.90;;;;;;7334341;19;109517;-68
2023/09/24 04:10:14;;;;;;;;;;;9.70;99.90;;;;;;7342472;19;109147;-67
2023/09/24 04:12:46;;;;;;;;;;;9.70;99.90;;;;;;7335896;19;108746;-67
2023/09/24 04:15:18;;;;;;;;;;;9.60;99.90;;;;;;7337118;19;108724;-66
2023/09/24 04:17:51;;;;;;;;;;;9.60;99.90;;;;;;7336368;19;110045;-67
2023/09/24 04:20:20;;;;;;;;;;;9.60;99.90;;;;;;7339536;19;109933;-66
2023/09/24 04:22:48;;;;;;;;;;;9.60;99.90;;;;;;7336445;19;108911;-66
2023/09/24 04:25:24;;;;;;;;;;;9.60;99.90;;;;;;7327202;19;111003;-68
2023/09/24 04:27:51;;;;;;;;;;;9.70;99.90;;;;;;7335773;19;109633;-68
2023/09/24 04:30:19;;;;;;;;;;;9.60;99.90;;;;;;7330048;19;110298;-68
2023/09/24 04:32:47;;;;;;;;;;;9.60;99.90;;;;;;7338605;19;110082;-65
2023/09/24 04:35:19;;;;;;;;;;;9.60;99.90;;;;;;7333594;19;111634;-65
2023/09/24 04:37:47;;;;;;;;;;;9.60;99.90;;;;;;7329534;19;109111;-67
2023/09/24 04:40:14;;;;;;;;;;;9.60;99.90;;;;;;7332731;19;108723;-67
2023/09/24 04:42:42;;;;;;;;;;;9.60;99.90;;;;;;7336943;19;110882;-67
2023/09/24 04:45:10;;;;;;;;;;;9.60;99.90;;;;;;7330561;19;110243;-67
2023/09/24 04:47:41;;;;;;;;;;;9.60;99.90;;;;;;7332962;19;109100;-67
2023/09/24 04:50:15;;;;;;;;;;;9.60;99.90;;;;;;7335326;19;110248;-67
2023/09/24 04:52:44;;;;;;;;;;;9.60;99.90;;;;;;7334638;19;109491;-67
2023/09/24 04:55:13;;;;;;;;;;;9.60;99.90;;;;;;7339693;19;109184;-67
2023/09/24 04:57:40;;;;;;;;;;;9.60;99.90;;;;;;7331029;19;111637;-66
2023/09/24 05:00:07;;;;;;;;;;;9.60;99.90;;;;;;7332462;19;108971;-67
2023/09/24 05:02:35;;;;;;;;;;;9.70;99.90;;;;;;7331394;19;110520;-67
2023/09/24 05:05:03;;;;;;;;;;;9.70;99.90;;;;;;7332502;19;110167;-67
2023/09/24 05:07:30;;;;;;;;;;;9.70;99.90;;;;;;7330717;19;109413;-67
2023/09/24 05:09:57;;;;;;;;;;;9.70;99.90;;;;;;7334886;19;109255;-65
2023/09/24 05:12:25;;;;;;;;;;;9.80;99.90;;;;;;7334145;19;110943;-67
2023/09/24 05:14:52;;;;;;;;;;;9.70;99.90;;;;;;7334730;19;111558;-67
2023/09/24 05:17:19;;;;;;;;;;;9.70;99.90;;;;;;7330737;19;109687;-67
2023/09/24 05:19:46;;;;;;;;;;;9.80;99.90;;;;;;7334383;19;109063;-67
2023/09/24 05:22:13;;;;;;;;;;;9.70;99.90;;;;;;7335917;19;108445;-66
2023/09/24 05:24:41;;;;;;;;;;;9.80;99.90;;;;;;7335791;19;110017;-67
2023/09/24 05:27:08;;;;;;;;;;;9.80;99.90;;;;;;7329965;19;109786;-67
2023/09/24 05:29:35;;;;;;;;;;;9.80;99.90;;;;;;7334500;19;108764;-67
2023/09/24 05:32:03;;;;;;;;;;;9.80;99.90;;;;;;7330992;19;110334;-67
2023/09/24 05:34:30;;;;;;;;;;;9.80;99.90;;;;;;7336676;19;109004;-67
2023/09/24 05:36:57;;;;;;;;;;;9.70;99.90;;;;;;7338286;19;109606;-65
2023/09/24 05:39:24;;;;;;;;;;;9.80;99.90;;;;;;7335971;19;109368;-67
2023/09/24 05:41:51;;;;;;;;;;;9.80;99.90;;;;;;7327868;19;108808;-66
2023/09/24 05:44:20;;;;;;;;;;;9.90;99.90;;;;;;7335769;19;110082;-67
2023/09/24 05:46:47;;;;;;;;;;;10.10;99.90;;;;;;7329337;19;108749;-67
2023/09/24 05:49:14;;;;;;;;;;;10.20;99.90;;;;;;7335645;19;109151;-69
2023/09/24 05:51:42;;;;;;;;;;;10.20;99.90;;;;;;7329481;19;110451;-65
2023/09/24 05:54:10;;;;;;;;;;;10.20;99.90;;;;;;7333464;19;108690;-67
2023/09/24 05:56:37;;;;;;;;;;;10.20;99.90;;;;;;7334125;19;109648;-67
2023/09/24 05:59:05;;;;;;;;;;;10.20;99.90;;;;;;7341224;19;109560;-67
2023/09/24 06:01:32;;;;;;;;;;;10.20;99.90;;;;;;7334352;19;109279;-65
2023/09/24 06:03:59;;;;;;;;;;;10.20;99.90;;;;;;7333432;19;109074;-67
2023/09/24 06:06:27;;;;;;;;;;;10.30;99.90;;;;;;7333778;19;108702;-67
2023/09/24 06:08:54;;;;;;;;;;;10.30;99.90;;;;;;7334076;19;109214;-67
2023/09/24 06:11:22;;;;;;;;;;;10.30;99.90;;;;;;7334243;19;109608;-67
2023/09/24 06:13:49;;;;;;;;;;;10.40;99.90;;;;;;7333048;19;108958;-67
2023/09/24 06:16:17;;;;;;;;;;;10.40;99.90;;;;;;7334398;19;110096;-67
2023/09/24 06:18:44;;;;;;;;;;;10.40;99.90;;;;;;7333641;19;109176;-66
2023/09/24 06:21:18;;;;;;;;;;;10.40;99.90;;;;;;7343346;19;108867;-66
2023/09/24 06:23:45;;;;;;;;;;;10.50;99.90;;;;;;7331404;19;110110;-67
2023/09/24 06:26:13;;;;;;;;;;;10.50;99.90;;;;;;7335653;19;108805;-67
2023/09/24 06:28:40;;;;;;;;;;;10.50;99.90;;;;;;7330863;19;109556;-66
2023/09/24 06:31:20;;;;;;;;;;;10.60;99.90;;;;;;7329321;19;109275;-64
2023/09/24 06:33:48;;;;;;;;;;;10.60;99.90;;;;;;7334179;19;108821;-65
2023/09/24 06:36:16;;;;;;;;;;;10.70;99.90;;;;;;7334091;19;108829;-64
2023/09/24 06:38:44;;;;;;;;;;;10.80;99.90;;;;;;7330299;19;109125;-65
2023/09/24 06:41:11;;;;;;;;;;;10.80;99.90;;;;;;7333563;19;109191;-65
2023/09/24 06:43:38;;;;;;;;;;;10.90;99.90;;;;;;7331527;19;109809;-65
2023/09/24 06:48:39;;;;;;;;;;;11.00;99.90;;;;;;7326968;19;109394;-67
2023/09/24 06:51:07;;;;;;;;;;;11.00;99.90;;;;;;7330405;19;109339;-67
2023/09/24 07:01:31;;;;;;;;;;;11.40;99.90;;;;;;7317067;19;130942;-71
2023/09/24 07:03:58;;;;;;;;;;;11.60;99.90;;;;;;7321801;19;108890;-67
2023/09/24 07:06:26;;;;;;;;;;;11.60;99.90;;;;;;7333267;19;109238;-67
2023/09/24 07:08:54;;;;;;;;;;;11.70;99.90;;;;;;7336437;19;110693;-67
2023/09/24 07:11:25;;;;;;;;;;;11.80;99.90;;;;;;7335672;19;110323;-67
2023/09/24 07:13:52;;;;;;;;;;;11.90;99.90;;;;;;7338978;19;108792;-69
2023/09/24 07:16:21;;;;;;;;;;;12.00;99.90;;;;;;7337520;19;110756;-67
2023/09/24 07:18:51;;;;;;;;;;;12.10;99.90;;;;;;7337314;19;109311;-67
2023/09/24 07:21:19;;;;;;;;;;;12.20;99.90;;;;;;7339789;19;108791;-66
2023/09/24 07:24:01;;;;;;;;;;;12.40;99.90;;;;;;7340231;19;109272;-67
2023/09/24 07:26:28;;;;;;;;;;;12.50;99.90;;;;;;7344925;19;109719;-66
2023/09/24 07:28:55;;;;;;;;;;;12.60;99.90;;;;;;7339516;19;111346;-67
2023/09/24 07:31:23;;;;;;;;;;;12.70;99.90;;;;;;7334305;19;109336;-68
2023/09/24 07:33:56;;;;;;;;;;;12.80;99.90;;;;;;7337735;19;108785;-67
2023/09/24 07:36:23;;;;;;;;;;;12.90;99.90;;;;;;7335779;19;109217;-67
2023/09/24 07:38:54;;;;;;;;;;;13.00;99.90;;;;;;7336616;19;108968;-67
2023/09/24 07:41:21;;;;;;;;;;;13.10;99.90;;;;;;7336449;19;109016;-66
2023/09/24 07:43:49;;;;;;;;;;;13.20;99.90;;;;;;7337166;19;108304;-67
2023/09/24 07:46:16;;;;;;;;;;;13.30;99.90;;;;;;7335312;19;110248;-67
2023/09/24 07:48:45;;;;;;;;;;;13.40;99.90;;;;;;7342795;19;109808;-67
2023/09/24 07:51:12;;;;;;;;;;;13.40;99.90;;;;;;7335431;19;110216;-66
2023/09/24 07:53:40;;;;;;;;;;;13.50;99.90;;;;;;7336821;19;110087;-67
2023/09/24 07:56:07;;;;;;;;;;;13.60;99.90;;;;;;7335814;19;109708;-67
2023/09/24 07:58:35;;;;;;;;;;;13.70;99.90;;;;;;7335889;19;111006;-66
2023/09/24 08:01:03;;;;;;;;;;;13.80;99.90;;;;;;7330808;19;109331;-66
2023/09/24 08:03:33;;;;;;;;;;;13.90;99.90;;;;;;7339470;19;108950;-65
2023/09/24 08:06:00;;;;;;;;;;;14.00;99.90;;;;;;7334651;19;110140;-66
2023/09/24 08:08:29;;;;;;;;;;;14.10;99.90;;;;;;7337727;19;108733;-66
2023/09/24 08:11:16;;;;;;;;;;;14.20;99.90;;;;;;7341488;19;108576;-67
2023/09/24 08:13:43;;;;;;;;;;;14.30;99.90;;;;;;7336220;19;108901;-67
2023/09/24 08:16:11;;;;;;;;;;;14.50;99.90;;;;;;7336958;19;108907;-66
2023/09/24 08:18:38;;;;;;;;;;;14.50;99.90;;;;;;7332315;19;110364;-67
2023/09/24 08:21:08;;;;;;;;;;;14.60;99.90;;;;;;7334849;19;108565;-66
2023/09/24 08:23:36;;;;;;;;;;;14.70;99.90;;;;;;7335754;19;109498;-67
2023/09/24 08:26:03;;;;;;;;;;;14.80;99.90;;;;;;7333065;19;109446;-68
2023/09/24 08:28:30;;;;;;;;;;;14.90;99.90;;;;;;7332425;19;109913;-66
2023/09/24 08:30:58;;;;;;;;;;;15.00;99.90;;;;;;7334978;19;109225;-68
2023/09/24 08:33:25;;;;;;;;;;;15.20;99.90;;;;;;7338368;19;108997;-68
2023/09/24 08:35:52;;;;;;;;;;;15.30;99.90;;;;;;7337676;19;108740;-66
2023/09/24 08:38:20;;;;;;;;;;;15.40;99.90;;;;;;7335210;19;109147;-68
2023/09/24 08:40:48;;;;;;;;;;;15.50;99.90;;;;;;7337023;19;109556;-66
2023/09/24 08:43:18;;;;;;;;;;;15.60;99.90;;;;;;7331970;19;109248;-67
2023/09/24 08:45:47;;;;;;;;;;;15.60;99.90;;;;;;7334558;19;109151;-66
2023/09/24 08:48:15;;;;;;;;;;;15.80;99.90;;;;;;7337281;19;109527;-66
2023/09/24 08:50:43;;;;;;;;;;;15.90;99.90;;;;;;7331553;19;108952;-66
2023/09/24 08:53:12;;;;;;;;;;;15.90;99.90;;;;;;7335994;19;110036;-66
2023/09/24 08:55:46;;;;;;;;;;;16.10;99.90;;;;;;7335309;19;110147;-67
2023/09/24 08:58:13;;;;;;;;;;;16.20;99.90;;;;;;7336973;19;109243;-68
2023/09/24 09:00:42;;;;;;;;;;;16.30;99.90;;;;;;7334846;19;108475;-68
2023/09/24 09:03:09;;;;;;;;;;;16.40;99.90;;;;;;7335311;19;108833;-68
2023/09/24 09:05:37;;;;;;;;;;;16.50;99.90;;;;;;7335353;19;109233;-69
2023/09/24 09:08:04;;;;;;;;;;;16.50;99.90;;;;;;7333940;19;108948;-68
2023/09/24 09:10:34;;;;;;;;;;;16.70;99.90;;;;;;7337570;19;110061;-68
2023/09/24 09:13:05;;;;;;;;;;;16.80;99.90;;;;;;7335423;19;109170;-68
2023/09/24 09:15:33;;;;;;;;;;;16.90;99.90;;;;;;7330293;19;109870;-69
2023/09/24 09:18:00;;;;;;;;;;;17.10;99.90;;;;;;7343430;19;108848;-68
2023/09/24 09:20:39;;;;;;;;;;;17.10;99.90;;;;;;7332773;19;110729;-67
2023/09/24 09:23:11;;;;;;;;;;;17.20;99.90;;;;;;7336965;19;109001;-68
2023/09/24 09:25:52;;;;;;;;;;;17.40;99.90;;;;;;7332592;19;113600;-67
2023/09/24 09:28:31;;;;;;;;;;;17.40;99.90;;;;;;7333853;19;109029;-68
2023/09/24 09:31:01;;;;;;;;;;;17.50;99.90;;;;;;7331810;19;109024;-69
2023/09/24 09:33:29;;;;;;;;;;;17.60;99.90;;;;;;7333311;19;110250;-69
2023/09/24 09:36:00;;;;;;;;;;;17.70;99.90;;;;;;7334700;19;108983;-67
2023/09/24 09:38:28;;;;;;;;;;;17.90;99.90;;;;;;7339439;19;109020;-66
2023/09/24 09:40:56;;;;;;;;;;;18.00;99.90;;;;;;7333415;19;109005;-67
2023/09/24 09:43:25;;;;;;;;;;;18.10;99.90;;;;;;7330369;19;108785;-66
2023/09/24 09:45:57;;;;;;;;;;;18.10;99.90;;;;;;7334393;19;111013;-67
2023/09/24 09:48:27;;;;;;;;;;;18.20;99.90;;;;;;7332909;19;108799;-67
2023/09/24 09:50:57;;;;;;;;;;;18.30;99.90;;;;;;7330082;19;109211;-67
2023/09/24 09:53:27;;;;;;;;;;;18.40;99.90;;;;;;7333190;19;109636;-67
2023/09/24 09:55:55;;;;;;;;;;;18.50;99.90;;;;;;7333252;19;109162;-67
2023/09/24 09:58:23;;;;;;;;;;;18.50;99.90;;;;;;7334268;19;109291;-68
2023/09/24 10:00:53;;;;;;;;;;;18.60;99.90;;;;;;7340888;19;109582;-67
2023/09/24 10:03:23;;;;;;;;;;;18.70;99.90;;;;;;7334297;19;108687;-67
2023/09/24 10:05:50;;;;;;;;;;;18.80;99.90;;;;;;7335632;19;109454;-67
2023/09/24 10:08:33;;;;;;;;;;;18.90;99.90;;;;;;7335908;19;108737;-67
2023/09/24 10:11:04;;;;;;;;;;;19.10;99.90;;;;;;7333849;19;108831;-67
2023/09/24 10:13:46;;;;;;;;;;;19.10;99.90;;;;;;7333232;19;109657;-67
2023/09/24 10:16:25;;;;;;;;;;;19.20;99.90;;;;;;7330841;19;108493;-67
2023/09/24 10:18:54;;;;;;;;;;;19.30;99.90;;;;;;7334732;19;110294;-67
2023/09/24 10:21:35;;;;;;;;;;;19.40;99.90;;;;;;7336952;19;110141;-66
2023/09/24 10:24:14;;;;;;;;;;;19.40;99.90;;;;;;7341052;19;108929;-67
2023/09/24 10:27:02;;;;;;;;;;;19.50;99.90;;;;;;7335487;19;110267;-66
2023/09/24 10:29:44;;;;;;;;;;;19.50;99.90;;;;;;7334840;19;108323;-67
2023/09/24 10:32:13;;;;;;;;;;;19.60;99.90;;;;;;7333643;19;111141;-67
2023/09/24 10:34:55;;;;;;;;;;;19.70;99.90;;;;;;7333690;19;110204;-67
2023/09/24 10:37:23;;;;;;;;;;;19.80;99.90;;;;;;7332893;19;108409;-67
2023/09/24 10:39:59;;;;;;;;;;;19.90;99.90;;;;;;7333130;19;108587;-67
2023/09/24 10:42:28;;;;;;;;;;;19.90;99.90;;;;;;7332169;19;109503;-67
2023/09/24 10:45:07;;;;;;;;;;;20.00;99.90;;;;;;7333528;19;109359;-67
2023/09/24 10:47:40;;;;;;;;;;;20.10;99.90;;;;;;7339929;19;108371;-67
2023/09/24 10:50:15;;;;;;;;;;;20.20;99.90;;;;;;7333291;19;110446;-67
2023/09/24 10:52:51;;;;;;;;;;;20.20;99.90;;;;;;7332416;19;109274;-67
2023/09/24 10:55:19;;;;;;;;;;;20.20;99.90;;;;;;7331500;19;110431;-67
2023/09/24 10:57:46;;;;;;;;;;;20.20;99.90;;;;;;7329720;19;110635;-67
2023/09/24 11:00:15;;;;;;;;;;;20.30;99.90;;;;;;7329592;19;108714;-67
2023/09/24 11:02:43;;;;;;;;;;;20.40;99.90;;;;;;7329075;19;109174;-67
2023/09/24 11:05:11;;;;;;;;;;;20.50;99.90;;;;;;7334768;19;109243;-67
2023/09/24 11:07:38;;;;;;;;;;;20.50;99.90;;;;;;7330224;19;108536;-67
2023/09/24 11:10:06;;;;;;;;;;;20.60;99.90;;;;;;7337529;19;109165;-67
2023/09/24 11:12:33;;;;;;;;;;;20.70;99.90;;;;;;7330861;19;110123;-67
2023/09/24 11:15:00;;;;;;;;;;;20.70;99.90;;;;;;7331004;19;109933;-67
2023/09/24 11:17:31;;;;;;;;;;;20.80;99.90;;;;;;7331636;19;109242;-67
2023/09/24 11:19:59;;;;;;;;;;;20.90;99.90;;;;;;7329247;19;111247;-67
2023/09/24 11:22:28;;;;;;;;;;;21.00;99.90;;;;;;7331235;19;109670;-67
2023/09/24 11:25:11;;;;;;;;;;;21.10;99.90;;;;;;7330785;19;110406;-69
2023/09/24 11:27:47;;;;;;;;;;;21.20;99.90;;;;;;7334842;19;109247;-67
2023/09/24 11:30:15;;;;;;;;;;;21.30;99.90;;;;;;7325485;19;113138;-67
2023/09/24 11:32:43;;;;;;;;;;;21.40;99.90;;;;;;7338460;19;108235;-68
2023/09/24 11:35:11;;;;;;;;;;;21.50;99.90;;;;;;7332676;19;109696;-67
2023/09/24 11:37:50;;;;;;;;;;;21.50;99.90;;;;;;7329100;19;108843;-68
2023/09/24 11:40:26;;;;;;;;;;;21.60;99.90;;;;;;7331966;19;109219;-68
2023/09/24 11:43:12;;;;;;;;;;;21.70;99.90;;;;;;7329340;19;109122;-68
2023/09/24 11:45:50;;;;;;;;;;;21.80;99.90;;;;;;7332175;19;108616;-68
2023/09/24 11:48:18;;;;;;;;;;;21.90;99.90;;;;;;7333982;19;108756;-68
2023/09/24 11:50:47;;;;;;;;;;;21.90;99.90;;;;;;7329064;19;112044;-68
2023/09/24 11:53:16;;;;;;;;;;;21.90;99.90;;;;;;7336069;19;108819;-68
2023/09/24 11:55:44;;;;;;;;;;;21.90;99.90;;;;;;7336236;19;109177;-68
2023/09/24 11:58:11;;;;;;;;;;;22.10;99.90;;;;;;7333599;19;110597;-67
2023/09/24 12:00:38;;;;;;;;;;;22.30;99.90;;;;;;7336125;19;109118;-67
2023/09/24 12:03:06;;;;;;;;;;;22.40;99.90;;;;;;7335139;19;109235;-67
2023/09/24 12:05:33;;;;;;;;;;;22.50;99.90;;;;;;7335683;19;109233;-67
2023/09/24 12:08:02;;;;;;;;;;;22.60;99.90;;;;;;7336789;19;109367;-67
2023/09/24 12:10:29;;;;;;;;;;;22.70;99.90;;;;;;7330409;19;111083;-67
2023/09/24 12:13:04;;;;;;;;;;;22.80;99.90;;;;;;7334273;19;109015;-68
2023/09/24 12:15:32;;;;;;;;;;;22.90;99.90;;;;;;7338796;19;108762;-67
2023/09/24 12:17:59;;;;;;;;;;;22.90;99.90;;;;;;7335020;19;108974;-72
2023/09/24 12:20:27;;;;;;;;;;;23.00;99.90;;;;;;7332976;19;109602;-69
2023/09/24 12:22:55;;;;;;;;;;;23.00;99.90;;;;;;7337290;19;109777;-69
2023/09/24 12:25:22;;;;;;;;;;;23.20;99.90;;;;;;7335386;19;108960;-73
2023/09/24 12:27:49;;;;;;;;;;;23.30;99.90;;;;;;7335302;19;108387;-70
2023/09/24 12:30:16;;;;;;;;;;;23.30;99.90;;;;;;7332613;19;110278;-72
2023/09/24 12:32:43;;;;;;;;;;;23.40;99.90;;;;;;7333365;19;109665;-69
2023/09/24 12:35:11;;;;;;;;;;;23.40;99.90;;;;;;7328442;19;111068;-71
2023/09/24 12:37:39;;;;;;;;;;;23.40;99.90;;;;;;7332385;19;110500;-71
2023/09/24 12:40:08;;;;;;;;;;;23.30;99.90;;;;;;7332739;19;111774;-70
2023/09/24 12:42:39;;;;;;;;;;;23.40;99.90;;;;;;7331823;19;109622;-71
2023/09/24 12:45:07;;;;;;;;;;;23.50;99.90;;;;;;7336159;19;109519;-70
2023/09/24 12:47:35;;;;;;;;;;;23.50;99.90;;;;;;7334982;19;109003;-70
2023/09/24 12:50:03;;;;;;;;;;;23.70;99.90;;;;;;7335088;19;110064;-70
2023/09/24 12:52:32;;;;;;;;;;;23.80;99.90;;;;;;7332242;19;110580;-70
2023/09/24 12:55:03;;;;;;;;;;;23.90;99.90;;;;;;7332574;19;108751;-70
2023/09/24 12:57:30;;;;;;;;;;;23.90;99.90;;;;;;7332910;19;109552;-71
2023/09/24 12:59:58;;;;;;;;;;;24.00;99.90;;;;;;7339790;19;109086;-71
2023/09/24 13:02:25;;;;;;;;;;;24.10;99.90;;;;;;7334289;19;109938;-70
2023/09/24 13:04:52;;;;;;;;;;;24.20;99.90;;;;;;7329938;19;109426;-70
2023/09/24 13:07:19;;;;;;;;;;;24.30;99.90;;;;;;7333735;19;108855;-71
2023/09/24 13:09:47;;;;;;;;;;;24.40;99.90;;;;;;7333561;19;109616;-71
2023/09/24 13:12:15;;;;;;;;;;;24.50;99.90;;;;;;7331181;19;108534;-71
2023/09/24 13:28:06;;;;;;;;;;;25.00;99.90;;;;;;7331499;19;109293;-71
2023/09/24 13:30:34;;;;;;;;;;;25.10;99.90;;;;;;7332549;19;109481;-70
2023/09/24 13:33:01;;;;;;;;;;;25.10;99.90;;;;;;7331920;19;109538;-70
2023/09/24 13:35:30;;;;;;;;;;;25.10;99.90;;;;;;7334006;19;109739;-71
2023/09/24 13:37:57;;;;;;;;;;;25.20;99.90;;;;;;7332963;19;108900;-71
2023/09/24 13:40:24;;;;;;;;;;;25.20;99.90;;;;;;7333969;19;109262;-71
2023/09/24 13:43:07;;;;;;;;;;;25.10;99.90;;;;;;7336024;19;109475;-71
2023/09/24 13:45:42;;;;;;;;;;;25.10;99.90;;;;;;7335936;19;111460;-70
2023/09/24 13:48:15;;;;;;;;;;;25.10;99.90;;;;;;7332198;19;109322;-70
2023/09/24 13:50:49;;;;;;;;;;;25.10;99.90;;;;;;7334410;19;108692;-71
2023/09/24 13:53:16;;;;;;;;;;;25.10;99.90;;;;;;7332464;19;109439;-72
2023/09/24 13:55:44;;;;;;;;;;;25.20;99.90;;;;;;7335323;19;108906;-76
2023/09/24 13:58:12;;;;;;;;;;;25.30;99.90;;;;;;7335083;19;108887;-71
2023/09/24 14:00:42;;;;;;;;;;;25.20;99.90;;;;;;7332508;19;110024;-71
2023/09/24 14:03:10;;;;;;;;;;;25.30;99.90;;;;;;7327514;19;108873;-71
2023/09/24 14:05:37;;;;;;;;;;;25.30;99.90;;;;;;7331830;19;110174;-71
2023/09/24 14:13:35;;;;;;;;;;;25.80;99.90;;;;;;7330882;19;109190;-71
2023/09/24 14:16:03;;;;;;;;;;;25.80;99.90;;;;;;7332923;19;111066;-71
2023/09/24 14:18:30;;;;;;;;;;;25.70;99.90;;;;;;7333777;19;109120;-71
2023/09/24 14:20:57;;;;;;;;;;;25.80;99.90;;;;;;7334335;19;109246;-70
2023/09/24 14:23:24;;;;;;;;;;;26.00;99.90;;;;;;7332052;19;108769;-70
2023/09/24 14:25:53;;;;;;;;;;;26.10;99.90;;;;;;7330877;19;112103;-71
2023/09/24 14:28:20;;;;;;;;;;;26.00;99.90;;;;;;7336006;19;110156;-71
2023/09/24 14:30:48;;;;;;;;;;;25.80;99.90;;;;;;7335211;19;109364;-72
2023/09/24 14:33:15;;;;;;;;;;;25.80;99.90;;;;;;7335212;19;109875;-71
2023/09/24 14:35:42;;;;;;;;;;;26.00;99.90;;;;;;7333592;19;109963;-71
2023/09/24 14:38:09;;;;;;;;;;;26.10;99.90;;;;;;7330449;19;110419;-71
2023/09/24 14:40:38;;;;;;;;;;;26.20;99.50;;;;;;7329848;19;109221;-71
2023/09/24 14:43:05;;;;;;;;;;;26.20;99.90;;;;;;7334461;19;109248;-70
2023/09/24 14:45:32;;;;;;;;;;;26.20;99.80;;;;;;7330640;19;110637;-71
2023/09/24 14:48:01;;;;;;;;;;;26.30;99.60;;;;;;7333220;19;109632;-71
2023/09/24 14:50:28;;;;;;;;;;;26.30;99.90;;;;;;7330525;19;108710;-76
2023/09/24 14:52:55;;;;;;;;;;;26.30;99.90;;;;;;7339947;19;109097;-77
2023/09/24 14:55:23;;;;;;;;;;;26.30;99.30;;;;;;7333910;19;108778;-78